sensor_id;sensor_type;location;lat;lon;timestamp;P1;durP1;ratioP1;P2;durP2;ratioP2
66342;SDS011;53144;51.524;5.080;2023-04-08T00:01:51;32.78;;;17.45;;
66342;SDS011;53144;51.524;5.080;2023-04-08T00:04:16;27.50;;;16.70;;
66342;SDS011;53144;51.524;5.080;2023-04-08T00:06:43;33.38;;;15.88;;
66342;SDS011;53144;51.524;5.080;2023-04-08T00:09:08;31.17;;;16.55;;
66342;SDS011;53144;51.524;5.080;2023-04-08T00:11:34;33.70;;;17.15;;
66342;SDS011;53144;51.524;5.080;2023-04-08T00:14:01;30.00;;;17.25;;
66342;SDS011;53144;51.524;5.080;2023-04-08T00:16:28;26.77;;;15.82;;
66342;SDS011;53144;51.524;5.080;2023-04-08T00:18:53;26.40;;;16.48;;
66342;SDS011;53144;51.524;5.080;2023-04-08T00:23:45;28.88;;;16.52;;
66342;SDS011;53144;51.524;5.080;2023-04-08T00:26:11;38.10;;;17.38;;
66342;SDS011;53144;51.524;5.080;2023-04-08T00:28:36;37.85;;;17.55;;
66342;SDS011;53144;51.524;5.080;2023-04-08T00:31:02;36.72;;;18.35;;
66342;SDS011;53144;51.524;5.080;2023-04-08T00:33:27;32.63;;;17.10;;
66342;SDS011;53144;51.524;5.080;2023-04-08T00:35:53;30.95;;;18.30;;
66342;SDS011;53144;51.524;5.080;2023-04-08T00:40:43;30.95;;;17.00;;
66342;SDS011;53144;51.524;5.080;2023-04-08T00:45:34;34.88;;;17.67;;
66342;SDS011;53144;51.524;5.080;2023-04-08T00:48:00;28.75;;;16.42;;
66342;SDS011;53144;51.524;5.080;2023-04-08T00:50:27;40.63;;;19.10;;
66342;SDS011;53144;51.524;5.080;2023-04-08T00:52:52;32.60;;;17.08;;
66342;SDS011;53144;51.524;5.080;2023-04-08T00:57:43;39.60;;;19.73;;
66342;SDS011;53144;51.524;5.080;2023-04-08T01:05:19;32.80;;;19.90;;
66342;SDS011;53144;51.524;5.080;2023-04-08T01:07:51;41.30;;;19.13;;
66342;SDS011;53144;51.524;5.080;2023-04-08T01:10:25;35.63;;;18.40;;
66342;SDS011;53144;51.524;5.080;2023-04-08T01:12:54;32.83;;;19.15;;
66342;SDS011;53144;51.524;5.080;2023-04-08T01:15:21;42.70;;;19.17;;
66342;SDS011;53144;51.524;5.080;2023-04-08T01:17:49;37.17;;;19.27;;
66342;SDS011;53144;51.524;5.080;2023-04-08T01:20:18;36.20;;;18.58;;
66342;SDS011;53144;51.524;5.080;2023-04-08T01:25:18;32.65;;;19.48;;
66342;SDS011;53144;51.524;5.080;2023-04-08T01:27:48;32.17;;;18.77;;
66342;SDS011;53144;51.524;5.080;2023-04-08T01:30:15;37.10;;;19.10;;
66342;SDS011;53144;51.524;5.080;2023-04-08T01:32:43;33.30;;;19.20;;
66342;SDS011;53144;51.524;5.080;2023-04-08T01:35:11;39.92;;;19.33;;
66342;SDS011;53144;51.524;5.080;2023-04-08T01:37:37;39.63;;;19.50;;
66342;SDS011;53144;51.524;5.080;2023-04-08T01:42:30;38.22;;;19.88;;
66342;SDS011;53144;51.524;5.080;2023-04-08T01:44:57;33.80;;;20.02;;
66342;SDS011;53144;51.524;5.080;2023-04-08T01:47:23;37.42;;;20.45;;
66342;SDS011;53144;51.524;5.080;2023-04-08T01:49:50;33.20;;;20.00;;
66342;SDS011;53144;51.524;5.080;2023-04-08T01:52:17;44.03;;;20.75;;
66342;SDS011;53144;51.524;5.080;2023-04-08T01:54:44;44.80;;;22.20;;
66342;SDS011;53144;51.524;5.080;2023-04-08T01:59:37;38.67;;;19.83;;
66342;SDS011;53144;51.524;5.080;2023-04-08T02:02:04;41.53;;;22.05;;
66342;SDS011;53144;51.524;5.080;2023-04-08T02:04:33;44.30;;;22.33;;
66342;SDS011;53144;51.524;5.080;2023-04-08T02:07:00;47.72;;;22.70;;
66342;SDS011;53144;51.524;5.080;2023-04-08T02:09:26;44.08;;;23.40;;
66342;SDS011;53144;51.524;5.080;2023-04-08T02:11:52;51.67;;;25.15;;
66342;SDS011;53144;51.524;5.080;2023-04-08T02:14:17;42.33;;;22.70;;
66342;SDS011;53144;51.524;5.080;2023-04-08T02:16:50;48.03;;;24.48;;
66342;SDS011;53144;51.524;5.080;2023-04-08T02:19:25;50.15;;;25.13;;
66342;SDS011;53144;51.524;5.080;2023-04-08T02:21:58;43.75;;;23.25;;
66342;SDS011;53144;51.524;5.080;2023-04-08T02:24:30;42.38;;;22.55;;
66342;SDS011;53144;51.524;5.080;2023-04-08T02:26:57;40.03;;;22.80;;
66342;SDS011;53144;51.524;5.080;2023-04-08T02:29:24;55.78;;;24.83;;
66342;SDS011;53144;51.524;5.080;2023-04-08T02:31:51;46.03;;;23.27;;
66342;SDS011;53144;51.524;5.080;2023-04-08T02:34:18;45.90;;;23.60;;
66342;SDS011;53144;51.524;5.080;2023-04-08T02:36:46;40.28;;;23.55;;
66342;SDS011;53144;51.524;5.080;2023-04-08T02:39:11;49.80;;;24.83;;
66342;SDS011;53144;51.524;5.080;2023-04-08T02:41:37;58.58;;;25.25;;
66342;SDS011;53144;51.524;5.080;2023-04-08T02:46:28;44.83;;;23.33;;
66342;SDS011;53144;51.524;5.080;2023-04-08T02:51:18;51.15;;;23.80;;
66342;SDS011;53144;51.524;5.080;2023-04-08T02:56:09;43.35;;;24.60;;
66342;SDS011;53144;51.524;5.080;2023-04-08T03:01:00;42.70;;;23.80;;
66342;SDS011;53144;51.524;5.080;2023-04-08T03:05:53;49.38;;;25.02;;
66342;SDS011;53144;51.524;5.080;2023-04-08T03:08:20;46.55;;;24.38;;
66342;SDS011;53144;51.524;5.080;2023-04-08T03:13:11;58.40;;;24.95;;
66342;SDS011;53144;51.524;5.080;2023-04-08T03:15:36;50.88;;;24.50;;
66342;SDS011;53144;51.524;5.080;2023-04-08T03:20:27;50.30;;;24.60;;
66342;SDS011;53144;51.524;5.080;2023-04-08T03:22:52;54.38;;;24.67;;
66342;SDS011;53144;51.524;5.080;2023-04-08T03:27:43;50.03;;;25.13;;
66342;SDS011;53144;51.524;5.080;2023-04-08T03:30:08;57.03;;;26.73;;
66342;SDS011;53144;51.524;5.080;2023-04-08T03:32:34;50.50;;;25.27;;
66342;SDS011;53144;51.524;5.080;2023-04-08T03:37:25;53.25;;;24.23;;
66342;SDS011;53144;51.524;5.080;2023-04-08T03:39:50;46.58;;;24.42;;
66342;SDS011;53144;51.524;5.080;2023-04-08T03:42:16;49.30;;;24.85;;
66342;SDS011;53144;51.524;5.080;2023-04-08T03:44:42;46.03;;;25.10;;
66342;SDS011;53144;51.524;5.080;2023-04-08T03:49:32;43.72;;;24.17;;
66342;SDS011;53144;51.524;5.080;2023-04-08T03:54:23;48.75;;;25.40;;
66342;SDS011;53144;51.524;5.080;2023-04-08T03:59:14;50.70;;;25.67;;
66342;SDS011;53144;51.524;5.080;2023-04-08T04:01:40;56.10;;;26.35;;
66342;SDS011;53144;51.524;5.080;2023-04-08T04:06:30;54.65;;;24.85;;
66342;SDS011;53144;51.524;5.080;2023-04-08T04:11:22;51.47;;;25.88;;
66342;SDS011;53144;51.524;5.080;2023-04-08T04:16:12;55.00;;;26.55;;
66342;SDS011;53144;51.524;5.080;2023-04-08T04:18:38;51.70;;;27.65;;
66342;SDS011;53144;51.524;5.080;2023-04-08T04:23:32;45.40;;;25.30;;
66342;SDS011;53144;51.524;5.080;2023-04-08T04:25:57;56.58;;;28.42;;
66342;SDS011;53144;51.524;5.080;2023-04-08T04:28:23;49.03;;;27.90;;
66342;SDS011;53144;51.524;5.080;2023-04-08T04:33:13;56.28;;;27.10;;
66342;SDS011;53144;51.524;5.080;2023-04-08T04:38:05;51.25;;;27.80;;
66342;SDS011;53144;51.524;5.080;2023-04-08T04:40:35;57.92;;;27.60;;
66342;SDS011;53144;51.524;5.080;2023-04-08T04:43:00;53.03;;;28.63;;
66342;SDS011;53144;51.524;5.080;2023-04-08T04:47:51;47.22;;;26.38;;
66342;SDS011;53144;51.524;5.080;2023-04-08T04:52:42;53.78;;;28.17;;
66342;SDS011;53144;51.524;5.080;2023-04-08T04:55:07;52.58;;;26.75;;
66342;SDS011;53144;51.524;5.080;2023-04-08T04:57:33;50.47;;;27.90;;
66342;SDS011;53144;51.524;5.080;2023-04-08T04:59:58;47.05;;;26.42;;
66342;SDS011;53144;51.524;5.080;2023-04-08T05:04:50;59.88;;;28.33;;
66342;SDS011;53144;51.524;5.080;2023-04-08T05:07:17;57.38;;;28.95;;
66342;SDS011;53144;51.524;5.080;2023-04-08T05:09:43;56.22;;;29.02;;
66342;SDS011;53144;51.524;5.080;2023-04-08T05:12:08;53.33;;;29.38;;
66342;SDS011;53144;51.524;5.080;2023-04-08T05:14:34;55.78;;;29.10;;
66342;SDS011;53144;51.524;5.080;2023-04-08T05:16:59;47.85;;;27.10;;
66342;SDS011;53144;51.524;5.080;2023-04-08T05:21:50;49.22;;;26.38;;
66342;SDS011;53144;51.524;5.080;2023-04-08T05:26:41;48.45;;;26.15;;
66342;SDS011;53144;51.524;5.080;2023-04-08T05:29:06;60.15;;;27.67;;
66342;SDS011;53144;51.524;5.080;2023-04-08T05:33:57;48.75;;;25.17;;
66342;SDS011;53144;51.524;5.080;2023-04-08T05:36:22;63.53;;;28.05;;
66342;SDS011;53144;51.524;5.080;2023-04-08T05:41:13;58.85;;;25.23;;
66342;SDS011;53144;51.524;5.080;2023-04-08T05:46:07;64.25;;;25.73;;
66342;SDS011;53144;51.524;5.080;2023-04-08T05:48:33;54.95;;;25.88;;
66342;SDS011;53144;51.524;5.080;2023-04-08T05:50:58;61.78;;;25.92;;
66342;SDS011;53144;51.524;5.080;2023-04-08T05:53:24;54.88;;;25.52;;
66342;SDS011;53144;51.524;5.080;2023-04-08T05:55:50;58.38;;;26.55;;
66342;SDS011;53144;51.524;5.080;2023-04-08T05:58:15;61.80;;;26.27;;
66342;SDS011;53144;51.524;5.080;2023-04-08T06:00:41;60.08;;;27.02;;
66342;SDS011;53144;51.524;5.080;2023-04-08T06:03:06;57.88;;;27.00;;
66342;SDS011;53144;51.524;5.080;2023-04-08T06:05:32;56.13;;;26.40;;
66342;SDS011;53144;51.524;5.080;2023-04-08T06:10:22;47.25;;;24.73;;
66342;SDS011;53144;51.524;5.080;2023-04-08T06:15:13;50.97;;;24.85;;
66342;SDS011;53144;51.524;5.080;2023-04-08T06:20:04;45.45;;;21.77;;
66342;SDS011;53144;51.524;5.080;2023-04-08T06:22:30;33.53;;;19.60;;
66342;SDS011;53144;51.524;5.080;2023-04-08T06:24:56;37.80;;;19.63;;
66342;SDS011;53144;51.524;5.080;2023-04-08T06:29:47;36.85;;;18.42;;
66342;SDS011;53144;51.524;5.080;2023-04-08T06:34:38;28.90;;;16.45;;
66342;SDS011;53144;51.524;5.080;2023-04-08T06:37:05;25.48;;;16.27;;
66342;SDS011;53144;51.524;5.080;2023-04-08T06:39:31;28.75;;;17.42;;
66342;SDS011;53144;51.524;5.080;2023-04-08T06:41:56;22.83;;;14.88;;
66342;SDS011;53144;51.524;5.080;2023-04-08T06:44:22;27.27;;;16.40;;
66342;SDS011;53144;51.524;5.080;2023-04-08T06:46:50;27.00;;;16.35;;
66342;SDS011;53144;51.524;5.080;2023-04-08T06:49:16;23.48;;;15.73;;
66342;SDS011;53144;51.524;5.080;2023-04-08T06:51:41;24.08;;;15.75;;
66342;SDS011;53144;51.524;5.080;2023-04-08T06:54:07;27.15;;;16.90;;
66342;SDS011;53144;51.524;5.080;2023-04-08T06:56:34;25.20;;;15.68;;
66342;SDS011;53144;51.524;5.080;2023-04-08T06:59:00;27.77;;;15.73;;
66342;SDS011;53144;51.524;5.080;2023-04-08T07:01:25;24.98;;;15.50;;
66342;SDS011;53144;51.524;5.080;2023-04-08T07:06:16;21.98;;;14.93;;
66342;SDS011;53144;51.524;5.080;2023-04-08T07:08:43;23.83;;;15.45;;
66342;SDS011;53144;51.524;5.080;2023-04-08T07:11:08;25.05;;;16.10;;
66342;SDS011;53144;51.524;5.080;2023-04-08T07:13:34;24.27;;;14.63;;
66342;SDS011;53144;51.524;5.080;2023-04-08T07:15:59;20.02;;;13.70;;
66342;SDS011;53144;51.524;5.080;2023-04-08T07:18:25;21.80;;;13.65;;
66342;SDS011;53144;51.524;5.080;2023-04-08T07:23:17;21.33;;;13.32;;
66342;SDS011;53144;51.524;5.080;2023-04-08T07:25:45;18.63;;;13.57;;
66342;SDS011;53144;51.524;5.080;2023-04-08T07:28:11;20.90;;;14.00;;
66342;SDS011;53144;51.524;5.080;2023-04-08T07:30:36;25.33;;;14.40;;
66342;SDS011;53144;51.524;5.080;2023-04-08T07:35:27;20.15;;;15.00;;
66342;SDS011;53144;51.524;5.080;2023-04-08T07:37:56;21.45;;;14.43;;
66342;SDS011;53144;51.524;5.080;2023-04-08T07:42:47;20.80;;;14.80;;
66342;SDS011;53144;51.524;5.080;2023-04-08T07:47:38;21.23;;;13.93;;
66342;SDS011;53144;51.524;5.080;2023-04-08T07:52:30;17.92;;;13.27;;
66342;SDS011;53144;51.524;5.080;2023-04-08T07:57:21;21.67;;;15.00;;
66342;SDS011;53144;51.524;5.080;2023-04-08T08:02:12;23.80;;;15.98;;
66342;SDS011;53144;51.524;5.080;2023-04-08T08:07:03;20.70;;;14.55;;
66342;SDS011;53144;51.524;5.080;2023-04-08T08:11:54;21.75;;;14.98;;
66342;SDS011;53144;51.524;5.080;2023-04-08T08:16:45;20.65;;;14.80;;
66342;SDS011;53144;51.524;5.080;2023-04-08T08:19:12;19.40;;;14.50;;
66342;SDS011;53144;51.524;5.080;2023-04-08T08:21:38;24.10;;;15.80;;
66342;SDS011;53144;51.524;5.080;2023-04-08T08:26:30;19.83;;;14.68;;
66342;SDS011;53144;51.524;5.080;2023-04-08T08:31:21;21.13;;;14.73;;
66342;SDS011;53144;51.524;5.080;2023-04-08T08:36:12;22.92;;;15.00;;
66342;SDS011;53144;51.524;5.080;2023-04-08T08:41:03;20.27;;;14.30;;
66342;SDS011;53144;51.524;5.080;2023-04-08T08:45:57;20.92;;;14.88;;
66342;SDS011;53144;51.524;5.080;2023-04-08T08:50:48;19.40;;;15.18;;
66342;SDS011;53144;51.524;5.080;2023-04-08T08:55:39;26.17;;;15.80;;
66342;SDS011;53144;51.524;5.080;2023-04-08T09:05:50;28.17;;;19.08;;
66342;SDS011;53144;51.524;5.080;2023-04-08T09:08:24;24.55;;;16.80;;
66342;SDS011;53144;51.524;5.080;2023-04-08T09:10:50;27.05;;;17.30;;
66342;SDS011;53144;51.524;5.080;2023-04-08T09:13:16;23.67;;;17.50;;
66342;SDS011;53144;51.524;5.080;2023-04-08T09:18:27;30.08;;;19.05;;
66342;SDS011;53144;51.524;5.080;2023-04-08T09:23:18;31.58;;;19.20;;
66342;SDS011;53144;51.524;5.080;2023-04-08T09:28:18;30.85;;;19.00;;
66342;SDS011;53144;51.524;5.080;2023-04-08T09:30:45;25.42;;;18.00;;
66342;SDS011;53144;51.524;5.080;2023-04-08T09:35:36;30.00;;;19.00;;
66342;SDS011;53144;51.524;5.080;2023-04-08T09:40:27;33.50;;;19.58;;
66342;SDS011;53144;51.524;5.080;2023-04-08T09:42:53;28.65;;;18.67;;
66342;SDS011;53144;51.524;5.080;2023-04-08T09:45:20;25.40;;;17.80;;
66342;SDS011;53144;51.524;5.080;2023-04-08T09:50:11;25.92;;;17.83;;
66342;SDS011;53144;51.524;5.080;2023-04-08T09:55:08;27.30;;;18.30;;
66342;SDS011;53144;51.524;5.080;2023-04-08T09:57:45;26.15;;;18.45;;
66342;SDS011;53144;51.524;5.080;2023-04-08T10:00:39;26.05;;;17.00;;
66342;SDS011;53144;51.524;5.080;2023-04-08T10:03:32;27.70;;;18.13;;
66342;SDS011;53144;51.524;5.080;2023-04-08T10:08:27;27.50;;;16.87;;
66342;SDS011;53144;51.524;5.080;2023-04-08T10:10:54;23.63;;;17.38;;
66342;SDS011;53144;51.524;5.080;2023-04-08T10:15:46;23.52;;;17.50;;
66342;SDS011;53144;51.524;5.080;2023-04-08T10:23:07;25.20;;;17.60;;
66342;SDS011;53144;51.524;5.080;2023-04-08T10:25:37;23.80;;;17.52;;
66342;SDS011;53144;51.524;5.080;2023-04-08T10:30:39;23.52;;;17.55;;
66342;SDS011;53144;51.524;5.080;2023-04-08T10:33:08;22.77;;;17.30;;
66342;SDS011;53144;51.524;5.080;2023-04-08T10:35:43;22.98;;;16.90;;
66342;SDS011;53144;51.524;5.080;2023-04-08T10:38:12;22.85;;;15.98;;
66342;SDS011;53144;51.524;5.080;2023-04-08T10:40:42;22.52;;;16.77;;
66342;SDS011;53144;51.524;5.080;2023-04-08T10:43:11;23.60;;;16.65;;
66342;SDS011;53144;51.524;5.080;2023-04-08T10:45:38;19.63;;;14.38;;
66342;SDS011;53144;51.524;5.080;2023-04-08T10:48:12;22.15;;;15.60;;
66342;SDS011;53144;51.524;5.080;2023-04-08T10:50:41;20.50;;;14.80;;
66342;SDS011;53144;51.524;5.080;2023-04-08T10:53:08;19.98;;;15.27;;
66342;SDS011;53144;51.524;5.080;2023-04-08T10:55:34;17.33;;;13.80;;
66342;SDS011;53144;51.524;5.080;2023-04-08T10:58:06;16.50;;;13.90;;
66342;SDS011;53144;51.524;5.080;2023-04-08T11:03:00;17.98;;;14.55;;
66342;SDS011;53144;51.524;5.080;2023-04-08T11:05:30;18.17;;;14.32;;
66342;SDS011;53144;51.524;5.080;2023-04-08T11:07:57;14.73;;;13.13;;
66342;SDS011;53144;51.524;5.080;2023-04-08T11:10:22;15.27;;;13.68;;
66342;SDS011;53144;51.524;5.080;2023-04-08T11:12:49;16.02;;;14.27;;
66342;SDS011;53144;51.524;5.080;2023-04-08T11:15:15;15.20;;;13.60;;
66342;SDS011;53144;51.524;5.080;2023-04-08T11:17:42;16.58;;;14.05;;
66342;SDS011;53144;51.524;5.080;2023-04-08T11:20:08;16.67;;;14.65;;
66342;SDS011;53144;51.524;5.080;2023-04-08T11:22:34;15.98;;;14.27;;
66342;SDS011;53144;51.524;5.080;2023-04-08T11:25:00;16.23;;;13.35;;
66342;SDS011;53144;51.524;5.080;2023-04-08T11:27:26;16.35;;;14.48;;
66342;SDS011;53144;51.524;5.080;2023-04-08T11:29:55;15.43;;;13.77;;
66342;SDS011;53144;51.524;5.080;2023-04-08T11:32:21;15.35;;;13.70;;
66342;SDS011;53144;51.524;5.080;2023-04-08T11:34:47;14.82;;;13.18;;
66342;SDS011;53144;51.524;5.080;2023-04-08T11:37:14;14.75;;;13.23;;
66342;SDS011;53144;51.524;5.080;2023-04-08T11:39:41;14.73;;;12.82;;
66342;SDS011;53144;51.524;5.080;2023-04-08T11:42:07;14.48;;;12.98;;
66342;SDS011;53144;51.524;5.080;2023-04-08T11:44:33;16.23;;;13.07;;
66342;SDS011;53144;51.524;5.080;2023-04-08T11:46:59;14.15;;;12.63;;
66342;SDS011;53144;51.524;5.080;2023-04-08T11:49:26;15.32;;;13.73;;
66342;SDS011;53144;51.524;5.080;2023-04-08T11:51:58;15.07;;;13.48;;
66342;SDS011;53144;51.524;5.080;2023-04-08T11:54:27;16.13;;;13.05;;
66342;SDS011;53144;51.524;5.080;2023-04-08T11:56:53;15.23;;;13.63;;
66342;SDS011;53144;51.524;5.080;2023-04-08T11:59:20;17.90;;;14.20;;
66342;SDS011;53144;51.524;5.080;2023-04-08T12:01:45;15.73;;;14.00;;
66342;SDS011;53144;51.524;5.080;2023-04-08T12:04:12;14.27;;;12.88;;
66342;SDS011;53144;51.524;5.080;2023-04-08T12:06:37;15.65;;;12.65;;
66342;SDS011;53144;51.524;5.080;2023-04-08T12:09:03;12.95;;;11.50;;
66342;SDS011;53144;51.524;5.080;2023-04-08T12:11:28;14.75;;;12.73;;
66342;SDS011;53144;51.524;5.080;2023-04-08T12:13:53;15.27;;;12.88;;
66342;SDS011;53144;51.524;5.080;2023-04-08T12:16:19;13.85;;;11.35;;
66342;SDS011;53144;51.524;5.080;2023-04-08T12:18:45;16.02;;;12.80;;
66342;SDS011;53144;51.524;5.080;2023-04-08T12:21:10;14.18;;;12.18;;
66342;SDS011;53144;51.524;5.080;2023-04-08T12:23:36;12.85;;;11.52;;
66342;SDS011;53144;51.524;5.080;2023-04-08T12:26:02;13.50;;;11.55;;
66342;SDS011;53144;51.524;5.080;2023-04-08T12:28:27;12.07;;;10.88;;
66342;SDS011;53144;51.524;5.080;2023-04-08T12:30:53;12.18;;;10.60;;
66342;SDS011;53144;51.524;5.080;2023-04-08T12:33:18;14.23;;;11.52;;
66342;SDS011;53144;51.524;5.080;2023-04-08T12:35:43;13.55;;;12.15;;
66342;SDS011;53144;51.524;5.080;2023-04-08T12:38:09;12.90;;;11.27;;
66342;SDS011;53144;51.524;5.080;2023-04-08T12:40:34;13.00;;;10.85;;
66342;SDS011;53144;51.524;5.080;2023-04-08T12:43:00;12.23;;;10.93;;
66342;SDS011;53144;51.524;5.080;2023-04-08T12:45:25;11.85;;;9.73;;
66342;SDS011;53144;51.524;5.080;2023-04-08T12:47:51;11.93;;;10.30;;
66342;SDS011;53144;51.524;5.080;2023-04-08T12:50:16;11.38;;;9.65;;
66342;SDS011;53144;51.524;5.080;2023-04-08T12:52:41;12.45;;;10.02;;
66342;SDS011;53144;51.524;5.080;2023-04-08T12:55:07;13.27;;;9.80;;
66342;SDS011;53144;51.524;5.080;2023-04-08T12:57:34;12.60;;;9.70;;
66342;SDS011;53144;51.524;5.080;2023-04-08T12:59:59;11.18;;;10.02;;
66342;SDS011;53144;51.524;5.080;2023-04-08T13:02:25;11.80;;;9.90;;
66342;SDS011;53144;51.524;5.080;2023-04-08T13:04:51;11.68;;;9.65;;
66342;SDS011;53144;51.524;5.080;2023-04-08T13:07:17;10.73;;;9.23;;
66342;SDS011;53144;51.524;5.080;2023-04-08T13:09:42;11.15;;;10.00;;
66342;SDS011;53144;51.524;5.080;2023-04-08T13:12:08;10.38;;;9.02;;
66342;SDS011;53144;51.524;5.080;2023-04-08T13:14:33;10.80;;;9.80;;
66342;SDS011;53144;51.524;5.080;2023-04-08T13:16:59;10.88;;;8.70;;
66342;SDS011;53144;51.524;5.080;2023-04-08T13:19:24;9.68;;;7.93;;
66342;SDS011;53144;51.524;5.080;2023-04-08T13:21:50;10.18;;;8.95;;
66342;SDS011;53144;51.524;5.080;2023-04-08T13:24:15;9.57;;;8.63;;
66342;SDS011;53144;51.524;5.080;2023-04-08T13:26:40;14.38;;;9.80;;
66342;SDS011;53144;51.524;5.080;2023-04-08T13:29:06;10.90;;;9.68;;
66342;SDS011;53144;51.524;5.080;2023-04-08T13:31:31;11.32;;;9.45;;
66342;SDS011;53144;51.524;5.080;2023-04-08T13:33:56;12.18;;;9.50;;
66342;SDS011;53144;51.524;5.080;2023-04-08T13:36:22;13.57;;;10.15;;
66342;SDS011;53144;51.524;5.080;2023-04-08T13:38:47;9.90;;;8.90;;
66342;SDS011;53144;51.524;5.080;2023-04-08T13:41:12;10.10;;;8.82;;
66342;SDS011;53144;51.524;5.080;2023-04-08T13:43:38;13.05;;;9.35;;
66342;SDS011;53144;51.524;5.080;2023-04-08T13:46:04;10.55;;;8.07;;
66342;SDS011;53144;51.524;5.080;2023-04-08T13:48:32;11.60;;;9.98;;
66342;SDS011;53144;51.524;5.080;2023-04-08T13:50:57;9.85;;;8.80;;
66342;SDS011;53144;51.524;5.080;2023-04-08T13:53:23;13.27;;;10.07;;
66342;SDS011;53144;51.524;5.080;2023-04-08T13:55:48;11.07;;;9.98;;
66342;SDS011;53144;51.524;5.080;2023-04-08T13:58:18;11.77;;;9.10;;
66342;SDS011;53144;51.524;5.080;2023-04-08T14:00:45;10.82;;;9.57;;
66342;SDS011;53144;51.524;5.080;2023-04-08T14:03:11;11.23;;;8.80;;
66342;SDS011;53144;51.524;5.080;2023-04-08T14:05:36;9.07;;;8.15;;
66342;SDS011;53144;51.524;5.080;2023-04-08T14:08:02;10.32;;;9.05;;
66342;SDS011;53144;51.524;5.080;2023-04-08T14:10:27;10.18;;;8.52;;
66342;SDS011;53144;51.524;5.080;2023-04-08T14:12:52;10.48;;;9.10;;
66342;SDS011;53144;51.524;5.080;2023-04-08T14:15:18;10.98;;;9.02;;
66342;SDS011;53144;51.524;5.080;2023-04-08T14:17:44;10.43;;;8.63;;
66342;SDS011;53144;51.524;5.080;2023-04-08T14:20:09;10.30;;;8.35;;
66342;SDS011;53144;51.524;5.080;2023-04-08T14:22:35;12.18;;;10.07;;
66342;SDS011;53144;51.524;5.080;2023-04-08T14:25:00;10.80;;;9.70;;
66342;SDS011;53144;51.524;5.080;2023-04-08T14:27:25;11.48;;;8.85;;
66342;SDS011;53144;51.524;5.080;2023-04-08T14:29:51;11.43;;;9.30;;
66342;SDS011;53144;51.524;5.080;2023-04-08T14:32:17;11.68;;;8.93;;
66342;SDS011;53144;51.524;5.080;2023-04-08T14:34:42;12.75;;;9.20;;
66342;SDS011;53144;51.524;5.080;2023-04-08T14:37:08;13.73;;;9.80;;
66342;SDS011;53144;51.524;5.080;2023-04-08T14:39:34;10.60;;;9.18;;
66342;SDS011;53144;51.524;5.080;2023-04-08T14:42:02;11.90;;;9.57;;
66342;SDS011;53144;51.524;5.080;2023-04-08T14:44:28;11.55;;;9.07;;
66342;SDS011;53144;51.524;5.080;2023-04-08T14:46:53;12.68;;;10.52;;
66342;SDS011;53144;51.524;5.080;2023-04-08T14:49:19;11.55;;;10.35;;
66342;SDS011;53144;51.524;5.080;2023-04-08T14:51:44;11.77;;;10.45;;
66342;SDS011;53144;51.524;5.080;2023-04-08T14:54:10;12.73;;;10.57;;
66342;SDS011;53144;51.524;5.080;2023-04-08T14:56:38;12.43;;;11.02;;
66342;SDS011;53144;51.524;5.080;2023-04-08T14:59:03;15.40;;;10.65;;
66342;SDS011;53144;51.524;5.080;2023-04-08T15:01:28;11.75;;;10.27;;
66342;SDS011;53144;51.524;5.080;2023-04-08T15:03:56;12.25;;;10.38;;
66342;SDS011;53144;51.524;5.080;2023-04-08T15:06:21;14.15;;;10.43;;
66342;SDS011;53144;51.524;5.080;2023-04-08T15:08:47;12.25;;;10.70;;
66342;SDS011;53144;51.524;5.080;2023-04-08T15:11:12;11.43;;;9.80;;
66342;SDS011;53144;51.524;5.080;2023-04-08T15:13:37;11.52;;;10.32;;
66342;SDS011;53144;51.524;5.080;2023-04-08T15:16:03;13.68;;;10.82;;
66342;SDS011;53144;51.524;5.080;2023-04-08T15:18:28;14.30;;;10.50;;
66342;SDS011;53144;51.524;5.080;2023-04-08T15:20:54;11.45;;;10.18;;
66342;SDS011;53144;51.524;5.080;2023-04-08T15:23:20;12.48;;;9.95;;
66342;SDS011;53144;51.524;5.080;2023-04-08T15:25:46;14.90;;;10.95;;
66342;SDS011;53144;51.524;5.080;2023-04-08T15:28:12;15.15;;;10.65;;
66342;SDS011;53144;51.524;5.080;2023-04-08T15:30:37;11.52;;;10.32;;
66342;SDS011;53144;51.524;5.080;2023-04-08T15:33:03;12.00;;;10.25;;
66342;SDS011;53144;51.524;5.080;2023-04-08T15:35:29;13.23;;;10.15;;
66342;SDS011;53144;51.524;5.080;2023-04-08T15:37:54;12.07;;;10.02;;
66342;SDS011;53144;51.524;5.080;2023-04-08T15:40:20;11.88;;;9.65;;
66342;SDS011;53144;51.524;5.080;2023-04-08T15:42:45;12.02;;;10.70;;
66342;SDS011;53144;51.524;5.080;2023-04-08T15:45:10;14.63;;;10.85;;
66342;SDS011;53144;51.524;5.080;2023-04-08T15:47:36;11.98;;;10.30;;
66342;SDS011;53144;51.524;5.080;2023-04-08T15:50:01;11.18;;;9.80;;
66342;SDS011;53144;51.524;5.080;2023-04-08T15:52:27;11.43;;;8.73;;
66342;SDS011;53144;51.524;5.080;2023-04-08T15:54:52;9.50;;;8.18;;
66342;SDS011;53144;51.524;5.080;2023-04-08T15:57:18;12.27;;;8.68;;
66342;SDS011;53144;51.524;5.080;2023-04-08T15:59:45;10.70;;;8.13;;
66342;SDS011;53144;51.524;5.080;2023-04-08T16:02:11;11.48;;;8.43;;
66342;SDS011;53144;51.524;5.080;2023-04-08T16:04:36;11.63;;;8.13;;
66342;SDS011;53144;51.524;5.080;2023-04-08T16:07:01;14.52;;;8.70;;
66342;SDS011;53144;51.524;5.080;2023-04-08T16:09:27;11.02;;;8.18;;
66342;SDS011;53144;51.524;5.080;2023-04-08T16:11:52;9.82;;;7.88;;
66342;SDS011;53144;51.524;5.080;2023-04-08T16:14:18;11.35;;;8.00;;
66342;SDS011;53144;51.524;5.080;2023-04-08T16:16:43;11.30;;;7.70;;
66342;SDS011;53144;51.524;5.080;2023-04-08T16:19:08;9.55;;;7.35;;
66342;SDS011;53144;51.524;5.080;2023-04-08T16:21:34;10.48;;;8.07;;
66342;SDS011;53144;51.524;5.080;2023-04-08T16:24:00;10.05;;;7.47;;
66342;SDS011;53144;51.524;5.080;2023-04-08T16:26:25;11.38;;;8.05;;
66342;SDS011;53144;51.524;5.080;2023-04-08T16:28:51;12.20;;;8.02;;
66342;SDS011;53144;51.524;5.080;2023-04-08T16:31:17;10.50;;;7.32;;
66342;SDS011;53144;51.524;5.080;2023-04-08T16:33:42;10.98;;;7.65;;
66342;SDS011;53144;51.524;5.080;2023-04-08T16:36:08;10.15;;;7.40;;
66342;SDS011;53144;51.524;5.080;2023-04-08T16:38:33;10.48;;;7.38;;
66342;SDS011;53144;51.524;5.080;2023-04-08T16:40:59;14.07;;;8.02;;
66342;SDS011;53144;51.524;5.080;2023-04-08T16:43:25;11.85;;;7.63;;
66342;SDS011;53144;51.524;5.080;2023-04-08T16:45:51;11.15;;;7.65;;
66342;SDS011;53144;51.524;5.080;2023-04-08T16:48:17;11.73;;;8.00;;
66342;SDS011;53144;51.524;5.080;2023-04-08T16:50:42;10.63;;;7.30;;
66342;SDS011;53144;51.524;5.080;2023-04-08T16:53:08;11.95;;;7.22;;
66342;SDS011;53144;51.524;5.080;2023-04-08T16:55:34;11.38;;;7.30;;
66342;SDS011;53144;51.524;5.080;2023-04-08T16:58:00;11.02;;;6.85;;
66342;SDS011;53144;51.524;5.080;2023-04-08T17:00:26;10.68;;;7.30;;
66342;SDS011;53144;51.524;5.080;2023-04-08T17:02:52;10.05;;;6.95;;
66342;SDS011;53144;51.524;5.080;2023-04-08T17:05:20;9.27;;;6.43;;
66342;SDS011;53144;51.524;5.080;2023-04-08T17:07:46;9.30;;;6.88;;
66342;SDS011;53144;51.524;5.080;2023-04-08T17:10:12;12.45;;;6.95;;
66342;SDS011;53144;51.524;5.080;2023-04-08T17:12:38;13.75;;;7.85;;
66342;SDS011;53144;51.524;5.080;2023-04-08T17:15:03;9.15;;;6.88;;
66342;SDS011;53144;51.524;5.080;2023-04-08T17:17:29;11.35;;;7.45;;
66342;SDS011;53144;51.524;5.080;2023-04-08T17:19:55;12.30;;;8.13;;
66342;SDS011;53144;51.524;5.080;2023-04-08T17:22:20;10.82;;;7.47;;